sensor_id;sensor_type;location;lat;lon;timestamp;P1;durP1;ratioP1;P2;durP2;ratioP2
45932;SDS011;51011;46.790;17.184;2022-09-09T00:00:33;1.63;;;0.98;;
45932;SDS011;51011;46.790;17.184;2022-09-09T00:03:08;1.20;;;0.93;;
45932;SDS011;51011;46.790;17.184;2022-09-09T00:05:45;1.30;;;0.80;;
45932;SDS011;51011;46.790;17.184;2022-09-09T00:11:43;1.55;;;0.75;;
45932;SDS011;51011;46.790;17.184;2022-09-09T00:17:07;1.17;;;0.75;;
45932;SDS011;51011;46.790;17.184;2022-09-09T00:19:46;1.75;;;0.95;;
45932;SDS011;51011;46.790;17.184;2022-09-09T00:22:20;0.95;;;0.80;;
45932;SDS011;51011;46.790;17.184;2022-09-09T00:24:54;2.08;;;0.60;;
45932;SDS011;51011;46.790;17.184;2022-09-09T00:27:29;1.67;;;0.80;;
45932;SDS011;51011;46.790;17.184;2022-09-09T00:29:59;1.00;;;0.68;;
45932;SDS011;51011;46.790;17.184;2022-09-09T00:32:37;2.72;;;0.95;;
45932;SDS011;51011;46.790;17.184;2022-09-09T00:35:04;2.28;;;0.90;;
45932;SDS011;51011;46.790;17.184;2022-09-09T00:37:37;1.65;;;0.82;;
45932;SDS011;51011;46.790;17.184;2022-09-09T00:40:18;1.30;;;0.93;;
45932;SDS011;51011;46.790;17.184;2022-09-09T00:42:49;1.10;;;0.70;;
45932;SDS011;51011;46.790;17.184;2022-09-09T00:48:01;1.00;;;0.73;;
45932;SDS011;51011;46.790;17.184;2022-09-09T00:50:46;0.80;;;0.70;;
45932;SDS011;51011;46.790;17.184;2022-09-09T00:53:19;0.80;;;0.75;;
45932;SDS011;51011;46.790;17.184;2022-09-09T00:56:12;2.17;;;0.98;;
45932;SDS011;51011;46.790;17.184;2022-09-09T00:58:43;1.05;;;0.90;;
45932;SDS011;51011;46.790;17.184;2022-09-09T01:01:21;0.85;;;0.70;;
45932;SDS011;51011;46.790;17.184;2022-09-09T01:03:53;1.40;;;0.80;;
45932;SDS011;51011;46.790;17.184;2022-09-09T04:53:31;5.55;;;2.15;;
45932;SDS011;51011;46.790;17.184;2022-09-09T04:56:07;5.18;;;2.58;;
45932;SDS011;51011;46.790;17.184;2022-09-09T04:58:39;3.53;;;2.38;;
45932;SDS011;51011;46.790;17.184;2022-09-09T05:01:09;2.88;;;2.10;;
45932;SDS011;51011;46.790;17.184;2022-09-09T05:03:41;3.17;;;2.17;;
45932;SDS011;51011;46.790;17.184;2022-09-09T05:06:14;4.07;;;2.47;;
45932;SDS011;51011;46.790;17.184;2022-09-09T05:08:42;3.15;;;2.38;;
45932;SDS011;51011;46.790;17.184;2022-09-09T05:11:19;4.13;;;2.10;;
45932;SDS011;51011;46.790;17.184;2022-09-09T05:13:50;3.70;;;2.10;;
45932;SDS011;51011;46.790;17.184;2022-09-09T05:16:18;3.95;;;2.30;;
45932;SDS011;51011;46.790;17.184;2022-09-09T05:18:44;3.17;;;2.17;;
45932;SDS011;51011;46.790;17.184;2022-09-09T05:21:11;4.45;;;2.17;;
45932;SDS011;51011;46.790;17.184;2022-09-09T05:23:38;2.40;;;1.83;;
45932;SDS011;51011;46.790;17.184;2022-09-09T05:26:03;4.53;;;2.28;;
45932;SDS011;51011;46.790;17.184;2022-09-09T05:28:30;2.58;;;1.92;;
45932;SDS011;51011;46.790;17.184;2022-09-09T05:30:59;3.15;;;2.10;;
45932;SDS011;51011;46.790;17.184;2022-09-09T05:33:31;2.58;;;1.77;;
45932;SDS011;51011;46.790;17.184;2022-09-09T05:36:01;2.10;;;1.90;;
45932;SDS011;51011;46.790;17.184;2022-09-09T05:38:31;4.32;;;2.10;;
45932;SDS011;51011;46.790;17.184;2022-09-09T05:41:00;2.60;;;2.00;;
45932;SDS011;51011;46.790;17.184;2022-09-09T05:43:28;3.38;;;2.13;;
45932;SDS011;51011;46.790;17.184;2022-09-09T05:46:04;3.38;;;1.77;;
45932;SDS011;51011;46.790;17.184;2022-09-09T05:48:35;3.10;;;1.98;;
45932;SDS011;51011;46.790;17.184;2022-09-09T05:51:02;4.95;;;2.15;;
45932;SDS011;51011;46.790;17.184;2022-09-09T05:53:29;1.85;;;1.67;;
45932;SDS011;51011;46.790;17.184;2022-09-09T05:56:00;1.98;;;1.67;;
45932;SDS011;51011;46.790;17.184;2022-09-09T05:58:36;2.13;;;1.80;;
45932;SDS011;51011;46.790;17.184;2022-09-09T06:01:06;2.97;;;1.70;;
45932;SDS011;51011;46.790;17.184;2022-09-09T06:03:36;2.40;;;1.70;;
45932;SDS011;51011;46.790;17.184;2022-09-09T06:06:04;2.53;;;1.70;;
45932;SDS011;51011;46.790;17.184;2022-09-09T06:08:31;2.90;;;1.60;;
45932;SDS011;51011;46.790;17.184;2022-09-09T06:11:07;3.67;;;2.17;;
45932;SDS011;51011;46.790;17.184;2022-09-09T06:13:34;4.18;;;2.00;;
45932;SDS011;51011;46.790;17.184;2022-09-09T06:16:02;3.88;;;2.10;;
45932;SDS011;51011;46.790;17.184;2022-09-09T06:18:28;3.95;;;2.05;;
45932;SDS011;51011;46.790;17.184;2022-09-09T06:21:01;3.15;;;2.03;;
45932;SDS011;51011;46.790;17.184;2022-09-09T06:23:32;2.72;;;1.80;;
45932;SDS011;51011;46.790;17.184;2022-09-09T06:28:35;3.88;;;1.88;;
45932;SDS011;51011;46.790;17.184;2022-09-09T06:31:03;2.78;;;1.70;;
45932;SDS011;51011;46.790;17.184;2022-09-09T06:33:31;3.05;;;1.80;;
45932;SDS011;51011;46.790;17.184;2022-09-09T06:36:00;4.30;;;2.30;;
45932;SDS011;51011;46.790;17.184;2022-09-09T06:38:26;4.10;;;1.95;;
45932;SDS011;51011;46.790;17.184;2022-09-09T06:40:54;5.90;;;2.10;;
45932;SDS011;51011;46.790;17.184;2022-09-09T06:43:21;3.65;;;1.75;;
45932;SDS011;51011;46.790;17.184;2022-09-09T06:45:59;5.07;;;2.20;;
45932;SDS011;51011;46.790;17.184;2022-09-09T06:48:31;3.25;;;2.00;;
45932;SDS011;51011;46.790;17.184;2022-09-09T06:53:35;4.55;;;2.13;;
45932;SDS011;51011;46.790;17.184;2022-09-09T06:58:37;2.42;;;2.00;;
45932;SDS011;51011;46.790;17.184;2022-09-09T07:01:09;2.40;;;1.90;;
45932;SDS011;51011;46.790;17.184;2022-09-09T07:03:36;3.58;;;1.80;;
45932;SDS011;51011;46.790;17.184;2022-09-09T07:06:02;3.63;;;2.10;;
45932;SDS011;51011;46.790;17.184;2022-09-09T07:08:29;3.05;;;1.67;;
45932;SDS011;51011;46.790;17.184;2022-09-09T07:11:01;3.45;;;2.10;;
45932;SDS011;51011;46.790;17.184;2022-09-09T07:13:31;4.20;;;1.60;;
45932;SDS011;51011;46.790;17.184;2022-09-09T07:16:04;4.18;;;1.90;;
45932;SDS011;51011;46.790;17.184;2022-09-09T07:18:31;2.75;;;1.85;;
45932;SDS011;51011;46.790;17.184;2022-09-09T07:20:57;3.00;;;1.45;;
45932;SDS011;51011;46.790;17.184;2022-09-09T07:23:23;2.90;;;1.70;;
45932;SDS011;51011;46.790;17.184;2022-09-09T07:25:49;5.03;;;1.65;;
45932;SDS011;51011;46.790;17.184;2022-09-09T07:28:16;3.53;;;1.70;;
45932;SDS011;51011;46.790;17.184;2022-09-09T07:30:42;4.38;;;1.73;;
45932;SDS011;51011;46.790;17.184;2022-09-09T07:33:08;3.45;;;1.60;;
45932;SDS011;51011;46.790;17.184;2022-09-09T07:35:35;2.58;;;1.60;;
45932;SDS011;51011;46.790;17.184;2022-09-09T07:38:02;2.22;;;1.30;;
45932;SDS011;51011;46.790;17.184;2022-09-09T07:40:32;1.98;;;1.40;;
45932;SDS011;51011;46.790;17.184;2022-09-09T07:42:59;2.15;;;1.33;;
45932;SDS011;51011;46.790;17.184;2022-09-09T07:45:25;2.42;;;1.70;;
45932;SDS011;51011;46.790;17.184;2022-09-09T07:47:53;3.45;;;1.52;;
45932;SDS011;51011;46.790;17.184;2022-09-09T07:50:22;2.20;;;1.30;;
45932;SDS011;51011;46.790;17.184;2022-09-09T07:52:50;2.42;;;1.50;;
45932;SDS011;51011;46.790;17.184;2022-09-09T07:55:16;3.05;;;1.30;;
45932;SDS011;51011;46.790;17.184;2022-09-09T07:57:42;2.50;;;1.15;;
45932;SDS011;51011;46.790;17.184;2022-09-09T08:00:08;4.10;;;1.35;;
45932;SDS011;51011;46.790;17.184;2022-09-09T08:02:40;3.58;;;1.83;;
45932;SDS011;51011;46.790;17.184;2022-09-09T08:05:07;3.40;;;1.58;;
45932;SDS011;51011;46.790;17.184;2022-09-09T08:07:34;2.50;;;1.40;;
45932;SDS011;51011;46.790;17.184;2022-09-09T08:10:00;2.78;;;1.13;;
45932;SDS011;51011;46.790;17.184;2022-09-09T08:12:29;2.63;;;1.23;;
45932;SDS011;51011;46.790;17.184;2022-09-09T08:14:56;3.67;;;1.40;;
45932;SDS011;51011;46.790;17.184;2022-09-09T08:17:24;3.17;;;1.45;;
45932;SDS011;51011;46.790;17.184;2022-09-09T08:19:50;2.28;;;1.38;;
45932;SDS011;51011;46.790;17.184;2022-09-09T08:22:20;1.85;;;1.33;;
45932;SDS011;51011;46.790;17.184;2022-09-09T08:24:47;2.45;;;1.17;;
45932;SDS011;51011;46.790;17.184;2022-09-09T08:27:13;3.97;;;1.30;;
45932;SDS011;51011;46.790;17.184;2022-09-09T08:29:39;2.58;;;1.33;;
45932;SDS011;51011;46.790;17.184;2022-09-09T08:32:05;2.28;;;1.33;;
45932;SDS011;51011;46.790;17.184;2022-09-09T08:34:32;2.38;;;1.40;;
45932;SDS011;51011;46.790;17.184;2022-09-09T08:37:02;3.45;;;1.30;;
45932;SDS011;51011;46.790;17.184;2022-09-09T08:39:33;1.98;;;1.05;;
45932;SDS011;51011;46.790;17.184;2022-09-09T08:55:48;2.50;;;1.23;;
45932;SDS011;51011;46.790;17.184;2022-09-09T08:58:23;2.45;;;1.10;;
45932;SDS011;51011;46.790;17.184;2022-09-09T09:09:49;2.03;;;1.30;;
45932;SDS011;51011;46.790;17.184;2022-09-09T09:12:22;1.60;;;1.20;;
45932;SDS011;51011;46.790;17.184;2022-09-09T09:14:49;2.00;;;1.30;;
45932;SDS011;51011;46.790;17.184;2022-09-09T09:17:19;1.60;;;1.20;;
45932;SDS011;51011;46.790;17.184;2022-09-09T09:19:47;2.92;;;1.25;;
45932;SDS011;51011;46.790;17.184;2022-09-09T09:25:18;2.13;;;1.05;;
45932;SDS011;51011;46.790;17.184;2022-09-09T09:31:08;2.70;;;1.30;;
45932;SDS011;51011;46.790;17.184;2022-09-09T09:33:40;2.28;;;1.30;;
45932;SDS011;51011;46.790;17.184;2022-09-09T09:36:13;2.20;;;1.23;;
45932;SDS011;51011;46.790;17.184;2022-09-09T09:38:59;2.40;;;1.08;;
45932;SDS011;51011;46.790;17.184;2022-09-09T09:41:49;1.58;;;1.38;;
45932;SDS011;51011;46.790;17.184;2022-09-09T09:44:22;1.88;;;1.20;;
45932;SDS011;51011;46.790;17.184;2022-09-09T09:49:32;6.38;;;1.60;;
45932;SDS011;51011;46.790;17.184;2022-09-09T09:52:02;3.30;;;1.35;;
45932;SDS011;51011;46.790;17.184;2022-09-09T09:54:30;1.52;;;1.20;;
45932;SDS011;51011;46.790;17.184;2022-09-09T09:57:08;1.30;;;1.20;;
45932;SDS011;51011;46.790;17.184;2022-09-09T09:59:39;2.42;;;1.52;;
45932;SDS011;51011;46.790;17.184;2022-09-09T10:02:14;2.05;;;1.33;;
45932;SDS011;51011;46.790;17.184;2022-09-09T10:04:43;2.17;;;1.33;;
45932;SDS011;51011;46.790;17.184;2022-09-09T10:07:12;1.45;;;1.02;;
45932;SDS011;51011;46.790;17.184;2022-09-09T10:09:45;2.03;;;1.10;;
45932;SDS011;51011;46.790;17.184;2022-09-09T10:15:50;2.60;;;0.95;;
45932;SDS011;51011;46.790;17.184;2022-09-09T10:24:07;1.92;;;1.30;;
45932;SDS011;51011;46.790;17.184;2022-09-09T10:40:30;1.75;;;1.30;;
45932;SDS011;51011;46.790;17.184;2022-09-09T10:43:00;2.53;;;1.20;;
45932;SDS011;51011;46.790;17.184;2022-09-09T10:45:37;2.35;;;1.33;;
45932;SDS011;51011;46.790;17.184;2022-09-09T10:50:56;2.65;;;1.17;;
45932;SDS011;51011;46.790;17.184;2022-09-09T10:53:35;2.30;;;1.15;;
45932;SDS011;51011;46.790;17.184;2022-09-09T10:56:22;2.28;;;1.33;;
45932;SDS011;51011;46.790;17.184;2022-09-09T10:59:00;2.00;;;1.02;;
45932;SDS011;51011;46.790;17.184;2022-09-09T11:01:30;3.13;;;1.00;;
45932;SDS011;51011;46.790;17.184;2022-09-09T11:04:09;2.05;;;1.15;;
45932;SDS011;51011;46.790;17.184;2022-09-09T11:06:39;5.97;;;1.70;;
45932;SDS011;51011;46.790;17.184;2022-09-09T11:09:08;1.38;;;1.20;;
45932;SDS011;51011;46.790;17.184;2022-09-09T11:11:51;3.95;;;1.30;;
45932;SDS011;51011;46.790;17.184;2022-09-09T11:16:57;2.05;;;1.40;;
45932;SDS011;51011;46.790;17.184;2022-09-09T11:21:59;2.13;;;1.35;;
45932;SDS011;51011;46.790;17.184;2022-09-09T11:24:28;2.92;;;1.30;;
45932;SDS011;51011;46.790;17.184;2022-09-09T11:26:58;3.65;;;1.50;;
45932;SDS011;51011;46.790;17.184;2022-09-09T11:40:31;1.60;;;1.20;;
45932;SDS011;51011;46.790;17.184;2022-09-09T11:43:05;2.03;;;1.13;;
45932;SDS011;51011;46.790;17.184;2022-09-09T11:45:33;2.35;;;1.40;;
45932;SDS011;51011;46.790;17.184;2022-09-09T11:48:00;1.83;;;1.10;;
45932;SDS011;51011;46.790;17.184;2022-09-09T11:50:30;2.80;;;1.25;;
45932;SDS011;51011;46.790;17.184;2022-09-09T11:53:04;1.73;;;1.27;;
45932;SDS011;51011;46.790;17.184;2022-09-09T11:55:30;3.22;;;1.30;;
45932;SDS011;51011;46.790;17.184;2022-09-09T12:00:40;2.22;;;1.40;;
45932;SDS011;51011;46.790;17.184;2022-09-09T12:06:11;2.65;;;1.13;;
45932;SDS011;51011;46.790;17.184;2022-09-09T12:08:37;2.40;;;1.40;;
45932;SDS011;51011;46.790;17.184;2022-09-09T12:11:10;2.90;;;1.23;;
45932;SDS011;51011;46.790;17.184;2022-09-09T12:13:36;1.50;;;1.20;;
45932;SDS011;51011;46.790;17.184;2022-09-09T12:16:02;1.63;;;0.90;;
45932;SDS011;51011;46.790;17.184;2022-09-09T12:18:37;2.85;;;1.23;;
45932;SDS011;51011;46.790;17.184;2022-09-09T12:23:35;1.70;;;1.00;;
45932;SDS011;51011;46.790;17.184;2022-09-09T12:29:00;2.08;;;1.10;;
45932;SDS011;51011;46.790;17.184;2022-09-09T12:31:44;2.20;;;1.02;;
45932;SDS011;51011;46.790;17.184;2022-09-09T12:34:18;2.47;;;1.38;;
45932;SDS011;51011;46.790;17.184;2022-09-09T12:40:06;1.13;;;1.00;;
45932;SDS011;51011;46.790;17.184;2022-09-09T12:43:20;1.88;;;1.08;;
45932;SDS011;51011;46.790;17.184;2022-09-09T12:45:47;3.53;;;1.17;;
45932;SDS011;51011;46.790;17.184;2022-09-09T12:48:16;2.58;;;1.30;;
45932;SDS011;51011;46.790;17.184;2022-09-09T12:50:50;1.83;;;0.90;;
45932;SDS011;51011;46.790;17.184;2022-09-09T12:55:49;1.33;;;0.90;;
45932;SDS011;51011;46.790;17.184;2022-09-09T12:58:17;2.92;;;1.00;;
45932;SDS011;51011;46.790;17.184;2022-09-09T13:00:49;3.35;;;1.00;;
45932;SDS011;51011;46.790;17.184;2022-09-09T13:03:18;2.42;;;1.00;;
45932;SDS011;51011;46.790;17.184;2022-09-09T13:05:46;1.73;;;0.75;;
45932;SDS011;51011;46.790;17.184;2022-09-09T13:08:12;1.58;;;0.90;;
45932;SDS011;51011;46.790;17.184;2022-09-09T13:10:40;2.47;;;1.00;;
45932;SDS011;51011;46.790;17.184;2022-09-09T13:13:20;2.13;;;1.30;;
45932;SDS011;51011;46.790;17.184;2022-09-09T13:15:53;2.78;;;1.02;;
45932;SDS011;51011;46.790;17.184;2022-09-09T13:18:24;2.10;;;0.98;;
45932;SDS011;51011;46.790;17.184;2022-09-09T13:21:03;1.77;;;1.17;;
45932;SDS011;51011;46.790;17.184;2022-09-09T13:23:30;1.30;;;0.93;;
45932;SDS011;51011;46.790;17.184;2022-09-09T13:25:58;2.10;;;1.30;;
45932;SDS011;51011;46.790;17.184;2022-09-09T13:28:29;1.10;;;0.97;;
45932;SDS011;51011;46.790;17.184;2022-09-09T13:31:03;2.03;;;1.05;;
45932;SDS011;51011;46.790;17.184;2022-09-09T13:33:31;1.33;;;1.05;;
45932;SDS011;51011;46.790;17.184;2022-09-09T13:36:08;1.43;;;0.83;;
45932;SDS011;51011;46.790;17.184;2022-09-09T13:38:36;2.60;;;1.10;;
45932;SDS011;51011;46.790;17.184;2022-09-09T13:41:04;2.63;;;1.00;;
45932;SDS011;51011;46.790;17.184;2022-09-09T13:43:36;3.45;;;1.35;;
45932;SDS011;51011;46.790;17.184;2022-09-09T13:46:04;2.55;;;1.20;;
45932;SDS011;51011;46.790;17.184;2022-09-09T13:49:00;1.13;;;1.00;;
45932;SDS011;51011;46.790;17.184;2022-09-09T13:51:37;2.60;;;1.00;;
45932;SDS011;51011;46.790;17.184;2022-09-09T13:54:10;0.93;;;0.90;;
45932;SDS011;51011;46.790;17.184;2022-09-09T13:56:37;1.40;;;1.10;;
45932;SDS011;51011;46.790;17.184;2022-09-09T13:59:04;1.90;;;1.23;;
45932;SDS011;51011;46.790;17.184;2022-09-09T14:01:31;2.47;;;1.10;;
45932;SDS011;51011;46.790;17.184;2022-09-09T14:03:59;1.17;;;1.08;;
45932;SDS011;51011;46.790;17.184;2022-09-09T14:06:25;2.08;;;1.15;;
45932;SDS011;51011;46.790;17.184;2022-09-09T14:08:51;2.33;;;1.02;;
45932;SDS011;51011;46.790;17.184;2022-09-09T14:11:17;2.97;;;1.27;;
45932;SDS011;51011;46.790;17.184;2022-09-09T14:13:43;1.67;;;1.13;;
45932;SDS011;51011;46.790;17.184;2022-09-09T14:16:09;2.15;;;1.40;;
45932;SDS011;51011;46.790;17.184;2022-09-09T14:18:35;2.10;;;1.00;;
45932;SDS011;51011;46.790;17.184;2022-09-09T14:21:00;1.88;;;1.20;;
45932;SDS011;51011;46.790;17.184;2022-09-09T14:23:27;1.42;;;1.20;;
45932;SDS011;51011;46.790;17.184;2022-09-09T14:25:54;1.95;;;1.30;;
45932;SDS011;51011;46.790;17.184;2022-09-09T14:28:20;2.17;;;1.25;;
45932;SDS011;51011;46.790;17.184;2022-09-09T14:30:46;2.53;;;1.30;;
45932;SDS011;51011;46.790;17.184;2022-09-09T14:33:13;1.90;;;1.40;;
45932;SDS011;51011;46.790;17.184;2022-09-09T14:35:40;1.67;;;1.27;;
45932;SDS011;51011;46.790;17.184;2022-09-09T14:38:06;4.25;;;1.20;;
45932;SDS011;51011;46.790;17.184;2022-09-09T14:40:33;1.70;;;1.20;;
45932;SDS011;51011;46.790;17.184;2022-09-09T14:43:03;2.17;;;1.10;;
45932;SDS011;51011;46.790;17.184;2022-09-09T14:45:29;2.85;;;1.33;;
45932;SDS011;51011;46.790;17.184;2022-09-09T14:47:55;4.35;;;1.38;;
45932;SDS011;51011;46.790;17.184;2022-09-09T14:50:21;1.60;;;1.10;;
45932;SDS011;51011;46.790;17.184;2022-09-09T14:52:47;2.28;;;1.30;;
45932;SDS011;51011;46.790;17.184;2022-09-09T14:55:13;1.65;;;1.20;;
45932;SDS011;51011;46.790;17.184;2022-09-09T14:57:38;1.40;;;1.30;;
45932;SDS011;51011;46.790;17.184;2022-09-09T15:00:05;1.70;;;1.17;;
45932;SDS011;51011;46.790;17.184;2022-09-09T15:02:32;2.30;;;1.35;;
45932;SDS011;51011;46.790;17.184;2022-09-09T15:04:58;1.73;;;1.40;;
45932;SDS011;51011;46.790;17.184;2022-09-09T15:07:26;1.83;;;1.10;;
45932;SDS011;51011;46.790;17.184;2022-09-09T15:09:53;2.28;;;1.48;;
45932;SDS011;51011;46.790;17.184;2022-09-09T15:12:19;3.80;;;1.73;;
45932;SDS011;51011;46.790;17.184;2022-09-09T15:14:45;2.35;;;1.42;;
45932;SDS011;51011;46.790;17.184;2022-09-09T15:17:11;1.98;;;1.38;;
45932;SDS011;51011;46.790;17.184;2022-09-09T15:19:37;2.13;;;1.27;;
45932;SDS011;51011;46.790;17.184;2022-09-09T15:22:05;3.85;;;1.50;;
45932;SDS011;51011;46.790;17.184;2022-09-09T15:24:32;2.38;;;1.25;;
45932;SDS011;51011;46.790;17.184;2022-09-09T15:26:58;2.78;;;1.50;;
45932;SDS011;51011;46.790;17.184;2022-09-09T15:29:24;2.67;;;1.50;;
45932;SDS011;51011;46.790;17.184;2022-09-09T15:31:50;3.60;;;1.83;;
45932;SDS011;51011;46.790;17.184;2022-09-09T15:34:15;1.77;;;1.30;;
45932;SDS011;51011;46.790;17.184;2022-09-09T15:36:42;3.20;;;1.50;;
45932;SDS011;51011;46.790;17.184;2022-09-09T15:39:09;3.80;;;1.67;;
45932;SDS011;51011;46.790;17.184;2022-09-09T15:41:38;2.13;;;1.70;;
45932;SDS011;51011;46.790;17.184;2022-09-09T15:44:04;2.75;;;1.60;;
45932;SDS011;51011;46.790;17.184;2022-09-09T15:49:04;4.85;;;1.77;;
45932;SDS011;51011;46.790;17.184;2022-09-09T15:51:34;2.55;;;1.80;;
45932;SDS011;51011;46.790;17.184;2022-09-09T15:54:02;2.53;;;1.60;;
45932;SDS011;51011;46.790;17.184;2022-09-09T15:56:29;2.47;;;1.65;;
45932;SDS011;51011;46.790;17.184;2022-09-09T15:58:58;3.33;;;1.52;;
45932;SDS011;51011;46.790;17.184;2022-09-09T16:01:25;1.90;;;1.38;;
45932;SDS011;51011;46.790;17.184;2022-09-09T16:03:51;2.80;;;1.70;;
45932;SDS011;51011;46.790;17.184;2022-09-09T16:06:18;2.85;;;1.50;;
45932;SDS011;51011;46.790;17.184;2022-09-09T16:08:46;3.80;;;1.60;;
45932;SDS011;51011;46.790;17.184;2022-09-09T16:11:25;2.42;;;1.58;;
45932;SDS011;51011;46.790;17.184;2022-09-09T16:13:52;4.18;;;1.65;;
45932;SDS011;51011;46.790;17.184;2022-09-09T16:16:20;3.03;;;2.17;;
45932;SDS011;51011;46.790;17.184;2022-09-09T16:18:48;2.55;;;1.55;;
45932;SDS011;51011;46.790;17.184;2022-09-09T16:21:25;2.65;;;1.80;;
45932;SDS011;51011;46.790;17.184;2022-09-09T16:23:55;2.65;;;1.50;;
45932;SDS011;51011;46.790;17.184;2022-09-09T16:26:21;2.83;;;1.52;;
45932;SDS011;51011;46.790;17.184;2022-09-09T16:28:48;3.55;;;1.45;;
45932;SDS011;51011;46.790;17.184;2022-09-09T16:31:18;2.97;;;1.67;;
45932;SDS011;51011;46.790;17.184;2022-09-09T16:33:45;3.13;;;1.50;;
45932;SDS011;51011;46.790;17.184;2022-09-09T16:36:15;3.38;;;1.70;;
45932;SDS011;51011;46.790;17.184;2022-09-09T16:38:48;4.97;;;1.40;;
45932;SDS011;51011;46.790;17.184;2022-09-09T16:41:18;3.72;;;1.50;;
45932;SDS011;51011;46.790;17.184;2022-09-09T16:43:45;2.22;;;1.60;;
45932;SDS011;51011;46.790;17.184;2022-09-09T16:46:17;3.25;;;1.65;;
45932;SDS011;51011;46.790;17.184;2022-09-09T16:48:45;3.78;;;1.55;;
45932;SDS011;51011;46.790;17.184;2022-09-09T16:51:21;4.40;;;1.95;;
45932;SDS011;51011;46.790;17.184;2022-09-09T16:53:51;2.90;;;1.83;;
45932;SDS011;51011;46.790;17.184;2022-09-09T16:56:22;1.70;;;1.50;;
45932;SDS011;51011;46.790;17.184;2022-09-09T16:58:51;2.80;;;1.60;;
45932;SDS011;51011;46.790;17.184;2022-09-09T17:01:24;2.33;;;1.60;;
45932;SDS011;51011;46.790;17.184;2022-09-09T17:03:54;4.68;;;2.00;;
45932;SDS011;51011;46.790;17.184;2022-09-09T17:06:22;2.20;;;1.40;;
45932;SDS011;51011;46.790;17.184;2022-09-09T17:08:53;3.88;;;1.80;;
45932;SDS011;51011;46.790;17.184;2022-09-09T17:11:19;3.70;;;1.65;;
45932;SDS011;51011;46.790;17.184;2022-09-09T17:13:45;3.42;;;1.65;;
45932;SDS011;51011;46.790;17.184;2022-09-09T17:16:12;2.03;;;1.50;;
45932;SDS011;51011;46.790;17.184;2022-09-09T17:18:38;2.95;;;1.60;;
45932;SDS011;51011;46.790;17.184;2022-09-09T17:21:05;3.67;;;1.80;;
45932;SDS011;51011;46.790;17.184;2022-09-09T17:23:35;3.42;;;1.80;;
45932;SDS011;51011;46.790;17.184;2022-09-09T17:26:04;2.13;;;1.70;;
45932;SDS011;51011;46.790;17.184;2022-09-09T17:28:33;2.25;;;1.60;;
45932;SDS011;51011;46.790;17.184;2022-09-09T17:30:59;2.45;;;1.83;;
45932;SDS011;51011;46.790;17.184;2022-09-09T17:33:31;3.90;;;1.70;;
45932;SDS011;51011;46.790;17.184;2022-09-09T17:35:58;4.25;;;1.85;;
45932;SDS011;51011;46.790;17.184;2022-09-09T17:38:26;1.90;;;1.70;;
45932;SDS011;51011;46.790;17.184;2022-09-09T17:41:05;2.58;;;1.70;;
45932;SDS011;51011;46.790;17.184;2022-09-09T17:43:35;3.75;;;1.70;;
45932;SDS011;51011;46.790;17.184;2022-09-09T17:46:21;3.70;;;2.90;;
45932;SDS011;51011;46.790;17.184;2022-09-09T17:48:48;11.50;;;10.48;;
45932;SDS011;51011;46.790;17.184;2022-09-09T17:51:16;11.75;;;10.75;;
45932;SDS011;51011;46.790;17.184;2022-09-09T17:53:46;5.75;;;5.10;;
45932;SDS011;51011;46.790;17.184;2022-09-09T17:56:14;4.72;;;4.22;;
45932;SDS011;51011;46.790;17.184;2022-09-09T17:58:41;3.95;;;2.80;;
45932;SDS011;51011;46.790;17.184;2022-09-09T18:01:08;5.22;;;4.72;;
45932;SDS011;51011;46.790;17.184;2022-09-09T18:03:37;5.28;;;3.63;;
45932;SDS011;51011;46.790;17.184;2022-09-09T18:06:05;5.50;;;3.70;;
45932;SDS011;51011;46.790;17.184;2022-09-09T18:08:32;4.55;;;2.75;;
45932;SDS011;51011;46.790;17.184;2022-09-09T18:11:00;3.67;;;2.40;;
45932;SDS011;51011;46.790;17.184;2022-09-09T18:13:26;2.55;;;2.20;;
45932;SDS011;51011;46.790;17.184;2022-09-09T18:15:52;3.30;;;2.45;;
45932;SDS011;51011;46.790;17.184;2022-09-09T18:18:18;3.38;;;2.25;;
45932;SDS011;51011;46.790;17.184;2022-09-09T18:20:45;5.47;;;3.70;;
45932;SDS011;51011;46.790;17.184;2022-09-09T18:23:11;4.18;;;3.25;;
45932;SDS011;51011;46.790;17.184;2022-09-09T18:25:37;4.07;;;2.30;;
45932;SDS011;51011;46.790;17.184;2022-09-09T18:28:03;4.10;;;2.20;;
45932;SDS011;51011;46.790;17.184;2022-09-09T18:30:29;2.40;;;2.03;;
45932;SDS011;51011;46.790;17.184;2022-09-09T18:32:56;3.47;;;2.20;;
45932;SDS011;51011;46.790;17.184;2022-09-09T18:35:22;2.95;;;1.98;;
45932;SDS011;51011;46.790;17.184;2022-09-09T18:37:48;4.47;;;1.90;;
45932;SDS011;51011;46.790;17.184;2022-09-09T18:40:13;3.65;;;2.20;;
45932;SDS011;51011;46.790;17.184;2022-09-09T18:42:39;3.40;;;2.20;;
45932;SDS011;51011;46.790;17.184;2022-09-09T18:45:07;5.40;;;2.10;;
45932;SDS011;51011;46.790;17.184;2022-09-09T18:47:32;4.85;;;1.80;;
45932;SDS011;51011;46.790;17.184;2022-09-09T18:49:59;2.50;;;2.00;;
45932;SDS011;51011;46.790;17.184;2022-09-09T18:52:25;6.00;;;2.05;;
45932;SDS011;51011;46.790;17.184;2022-09-09T18:54:51;2.28;;;1.83;;
45932;SDS011;51011;46.790;17.184;2022-09-09T18:57:17;5.13;;;2.20;;
45932;SDS011;51011;46.790;17.184;2022-09-09T18:59:43;2.95;;;2.10;;
45932;SDS011;51011;46.790;17.184;2022-09-09T19:02:08;2.47;;;2.05;;
45932;SDS011;51011;46.790;17.184;2022-09-09T19:04:36;3.65;;;2.10;;
45932;SDS011;51011;46.790;17.184;2022-09-09T19:07:01;2.75;;;2.08;;
45932;SDS011;51011;46.790;17.184;2022-09-09T19:09:28;5.32;;;2.30;;
45932;SDS011;51011;46.790;17.184;2022-09-09T19:11:57;7.22;;;3.00;;
45932;SDS011;51011;46.790;17.184;2022-09-09T19:14:24;5.38;;;2.35;;
45932;SDS011;51011;46.790;17.184;2022-09-09T19:16:49;4.28;;;2.75;;
45932;SDS011;51011;46.790;17.184;2022-09-09T19:19:20;4.55;;;2.40;;
45932;SDS011;51011;46.790;17.184;2022-09-09T19:21:46;5.03;;;2.30;;
45932;SDS011;51011;46.790;17.184;2022-09-09T19:26:41;4.57;;;2.45;;
45932;SDS011;51011;46.790;17.184;2022-09-09T19:29:10;3.53;;;2.50;;
45932;SDS011;51011;46.790;17.184;2022-09-09T19:31:39;5.18;;;2.85;;
45932;SDS011;51011;46.790;17.184;2022-09-09T19:34:05;6.57;;;3.40;;
45932;SDS011;51011;46.790;17.184;2022-09-09T19:36:30;8.10;;;2.80;;
45932;SDS011;51011;46.790;17.184;2022-09-09T19:38:56;4.60;;;3.13;;
45932;SDS011;51011;46.790;17.184;2022-09-09T19:41:24;4.78;;;2.83;;
45932;SDS011;51011;46.790;17.184;2022-09-09T19:43:51;4.38;;;3.08;;
45932;SDS011;51011;46.790;17.184;2022-09-09T19:46:20;3.83;;;3.00;;
45932;SDS011;51011;46.790;17.184;2022-09-09T19:48:46;3.65;;;2.88;;
45932;SDS011;51011;46.790;17.184;2022-09-09T19:51:13;5.53;;;2.92;;
45932;SDS011;51011;46.790;17.184;2022-09-09T19:53:44;3.40;;;2.60;;
45932;SDS011;51011;46.790;17.184;2022-09-09T19:56:12;5.55;;;2.83;;
45932;SDS011;51011;46.790;17.184;2022-09-09T19:58:38;3.83;;;2.63;;
45932;SDS011;51011;46.790;17.184;2022-09-09T20:01:05;3.58;;;2.40;;
45932;SDS011;51011;46.790;17.184;2022-09-09T20:03:31;5.30;;;2.40;;
45932;SDS011;51011;46.790;17.184;2022-09-09T20:05:57;3.85;;;2.20;;
45932;SDS011;51011;46.790;17.184;2022-09-09T20:08:22;3.97;;;2.10;;
45932;SDS011;51011;46.790;17.184;2022-09-09T20:10:51;4.22;;;2.47;;
45932;SDS011;51011;46.790;17.184;2022-09-09T20:13:17;3.83;;;2.58;;
45932;SDS011;51011;46.790;17.184;2022-09-09T20:15:43;3.42;;;2.53;;
45932;SDS011;51011;46.790;17.184;2022-09-09T20:18:08;3.47;;;2.22;;
45932;SDS011;51011;46.790;17.184;2022-09-09T20:20:38;5.05;;;2.58;;
45932;SDS011;51011;46.790;17.184;2022-09-09T20:23:05;3.22;;;2.47;;
45932;SDS011;51011;46.790;17.184;2022-09-09T20:25:34;4.05;;;2.35;;